sensor_id;sensor_type;location;lat;lon;timestamp;temperature;humidity
19437;DHT22;9854;50.968;4.168;2023-12-20T00:01:56;7.00;99.90
19437;DHT22;9854;50.968;4.168;2023-12-20T00:04:22;7.00;99.90
19437;DHT22;9854;50.968;4.168;2023-12-20T00:06:48;7.00;99.90
19437;DHT22;9854;50.968;4.168;2023-12-20T00:09:13;7.00;99.90
19437;DHT22;9854;50.968;4.168;2023-12-20T00:11:41;6.90;99.90
19437;DHT22;9854;50.968;4.168;2023-12-20T00:14:07;6.80;99.90
19437;DHT22;9854;50.968;4.168;2023-12-20T00:16:33;6.80;99.90
19437;DHT22;9854;50.968;4.168;2023-12-20T00:19:01;6.80;99.90
19437;DHT22;9854;50.968;4.168;2023-12-20T00:21:29;6.80;99.90
19437;DHT22;9854;50.968;4.168;2023-12-20T00:23:57;6.80;99.90
19437;DHT22;9854;50.968;4.168;2023-12-20T00:26:22;6.90;99.90
19437;DHT22;9854;50.968;4.168;2023-12-20T00:28:48;6.90;99.90
19437;DHT22;9854;50.968;4.168;2023-12-20T00:31:13;7.00;99.90
19437;DHT22;9854;50.968;4.168;2023-12-20T00:33:39;6.90;99.90
19437;DHT22;9854;50.968;4.168;2023-12-20T00:36:09;6.90;99.90
19437;DHT22;9854;50.968;4.168;2023-12-20T00:38:35;6.80;99.90
19437;DHT22;9854;50.968;4.168;2023-12-20T00:41:00;6.70;99.90
19437;DHT22;9854;50.968;4.168;2023-12-20T00:43:26;6.70;99.90
19437;DHT22;9854;50.968;4.168;2023-12-20T00:45:56;6.80;99.90
19437;DHT22;9854;50.968;4.168;2023-12-20T00:48:22;7.00;99.90
19437;DHT22;9854;50.968;4.168;2023-12-20T00:50:48;6.90;99.90
19437;DHT22;9854;50.968;4.168;2023-12-20T00:53:18;6.90;99.90
19437;DHT22;9854;50.968;4.168;2023-12-20T00:55:46;6.80;99.90
19437;DHT22;9854;50.968;4.168;2023-12-20T00:58:12;6.80;99.90
19437;DHT22;9854;50.968;4.168;2023-12-20T01:00:37;6.90;99.90
19437;DHT22;9854;50.968;4.168;2023-12-20T01:03:03;6.90;99.90
19437;DHT22;9854;50.968;4.168;2023-12-20T01:05:29;6.80;99.90
19437;DHT22;9854;50.968;4.168;2023-12-20T01:07:55;6.70;99.90
19437;DHT22;9854;50.968;4.168;2023-12-20T01:10:25;6.60;99.90
19437;DHT22;9854;50.968;4.168;2023-12-20T01:12:54;6.50;99.90
19437;DHT22;9854;50.968;4.168;2023-12-20T01:15:19;6.60;99.90
19437;DHT22;9854;50.968;4.168;2023-12-20T01:17:45;6.60;99.90
19437;DHT22;9854;50.968;4.168;2023-12-20T01:20:11;6.60;99.90
19437;DHT22;9854;50.968;4.168;2023-12-20T01:22:36;6.70;99.90
19437;DHT22;9854;50.968;4.168;2023-12-20T01:25:02;6.70;99.90
19437;DHT22;9854;50.968;4.168;2023-12-20T01:27:28;6.70;99.90
19437;DHT22;9854;50.968;4.168;2023-12-20T01:29:54;6.60;99.90
19437;DHT22;9854;50.968;4.168;2023-12-20T01:32:22;6.60;99.90
19437;DHT22;9854;50.968;4.168;2023-12-20T01:34:47;6.70;99.90
19437;DHT22;9854;50.968;4.168;2023-12-20T01:37:15;6.70;99.90
19437;DHT22;9854;50.968;4.168;2023-12-20T01:39:43;6.70;99.90
19437;DHT22;9854;50.968;4.168;2023-12-20T01:42:09;6.80;99.90
19437;DHT22;9854;50.968;4.168;2023-12-20T01:44:34;6.70;99.90
19437;DHT22;9854;50.968;4.168;2023-12-20T01:47:00;6.70;99.90
19437;DHT22;9854;50.968;4.168;2023-12-20T01:49:26;6.70;99.90
19437;DHT22;9854;50.968;4.168;2023-12-20T01:51:54;6.70;99.90
19437;DHT22;9854;50.968;4.168;2023-12-20T01:54:20;6.70;99.90
19437;DHT22;9854;50.968;4.168;2023-12-20T01:56:46;6.70;99.90
19437;DHT22;9854;50.968;4.168;2023-12-20T01:59:14;6.70;99.90
19437;DHT22;9854;50.968;4.168;2023-12-20T02:01:40;6.70;99.90
19437;DHT22;9854;50.968;4.168;2023-12-20T02:04:06;6.70;99.90
19437;DHT22;9854;50.968;4.168;2023-12-20T02:06:33;6.70;99.90
19437;DHT22;9854;50.968;4.168;2023-12-20T02:09:00;6.70;99.90
19437;DHT22;9854;50.968;4.168;2023-12-20T02:11:26;6.90;99.90
19437;DHT22;9854;50.968;4.168;2023-12-20T02:13:52;6.80;99.90
19437;DHT22;9854;50.968;4.168;2023-12-20T02:16:18;6.70;99.90
19437;DHT22;9854;50.968;4.168;2023-12-20T02:18:44;6.70;99.90
19437;DHT22;9854;50.968;4.168;2023-12-20T02:21:10;6.80;99.90
19437;DHT22;9854;50.968;4.168;2023-12-20T02:23:36;6.90;99.90
19437;DHT22;9854;50.968;4.168;2023-12-20T02:26:02;7.00;99.90
19437;DHT22;9854;50.968;4.168;2023-12-20T02:28:28;7.10;99.90
19437;DHT22;9854;50.968;4.168;2023-12-20T02:30:54;7.00;99.90
19437;DHT22;9854;50.968;4.168;2023-12-20T02:33:23;7.10;99.90
19437;DHT22;9854;50.968;4.168;2023-12-20T02:35:48;7.10;99.90
19437;DHT22;9854;50.968;4.168;2023-12-20T02:38:18;7.10;99.90
19437;DHT22;9854;50.968;4.168;2023-12-20T02:40:46;7.10;99.90
19437;DHT22;9854;50.968;4.168;2023-12-20T02:43:11;7.10;99.90
19437;DHT22;9854;50.968;4.168;2023-12-20T02:45:41;7.30;99.90
19437;DHT22;9854;50.968;4.168;2023-12-20T02:48:07;7.30;99.90
19437;DHT22;9854;50.968;4.168;2023-12-20T02:50:35;7.20;99.90
19437;DHT22;9854;50.968;4.168;2023-12-20T02:53:01;7.30;99.90
19437;DHT22;9854;50.968;4.168;2023-12-20T02:55:29;7.20;99.90
19437;DHT22;9854;50.968;4.168;2023-12-20T02:57:54;7.20;99.90
19437;DHT22;9854;50.968;4.168;2023-12-20T03:00:20;7.20;99.90
19437;DHT22;9854;50.968;4.168;2023-12-20T03:02:46;7.20;99.90
19437;DHT22;9854;50.968;4.168;2023-12-20T03:05:11;7.30;99.90
19437;DHT22;9854;50.968;4.168;2023-12-20T03:07:37;7.30;99.90
19437;DHT22;9854;50.968;4.168;2023-12-20T03:10:04;7.30;99.90
19437;DHT22;9854;50.968;4.168;2023-12-20T03:12:31;7.30;99.90
19437;DHT22;9854;50.968;4.168;2023-12-20T03:15:01;7.40;99.90
19437;DHT22;9854;50.968;4.168;2023-12-20T03:17:27;7.40;99.90
19437;DHT22;9854;50.968;4.168;2023-12-20T03:19:53;7.40;99.90
19437;DHT22;9854;50.968;4.168;2023-12-20T03:22:21;7.40;99.90
19437;DHT22;9854;50.968;4.168;2023-12-20T03:24:46;7.40;99.90
19437;DHT22;9854;50.968;4.168;2023-12-20T03:27:12;7.40;99.90
19437;DHT22;9854;50.968;4.168;2023-12-20T03:29:37;7.40;99.90
19437;DHT22;9854;50.968;4.168;2023-12-20T03:32:06;7.30;99.90
19437;DHT22;9854;50.968;4.168;2023-12-20T03:34:31;7.30;99.90
19437;DHT22;9854;50.968;4.168;2023-12-20T03:36:59;7.30;99.90
19437;DHT22;9854;50.968;4.168;2023-12-20T03:39:25;7.30;99.90
19437;DHT22;9854;50.968;4.168;2023-12-20T03:41:53;7.30;99.90
19437;DHT22;9854;50.968;4.168;2023-12-20T03:44:18;7.30;99.90
19437;DHT22;9854;50.968;4.168;2023-12-20T03:46:44;7.50;99.90
19437;DHT22;9854;50.968;4.168;2023-12-20T03:49:11;7.50;99.90
19437;DHT22;9854;50.968;4.168;2023-12-20T03:51:36;7.40;99.90
19437;DHT22;9854;50.968;4.168;2023-12-20T03:54:04;7.50;99.90
19437;DHT22;9854;50.968;4.168;2023-12-20T03:56:30;7.60;99.90
19437;DHT22;9854;50.968;4.168;2023-12-20T03:58:55;7.60;99.90
19437;DHT22;9854;50.968;4.168;2023-12-20T04:01:21;7.50;99.90
19437;DHT22;9854;50.968;4.168;2023-12-20T04:03:47;7.40;99.90
19437;DHT22;9854;50.968;4.168;2023-12-20T04:06:19;7.40;99.90
19437;DHT22;9854;50.968;4.168;2023-12-20T04:08:45;7.30;99.90
19437;DHT22;9854;50.968;4.168;2023-12-20T04:11:12;7.30;99.90
19437;DHT22;9854;50.968;4.168;2023-12-20T04:13:40;7.40;99.90
19437;DHT22;9854;50.968;4.168;2023-12-20T04:16:06;7.30;99.90
19437;DHT22;9854;50.968;4.168;2023-12-20T04:18:32;7.20;99.90
19437;DHT22;9854;50.968;4.168;2023-12-20T04:20:57;7.20;99.90
19437;DHT22;9854;50.968;4.168;2023-12-20T04:23:23;7.20;99.90
19437;DHT22;9854;50.968;4.168;2023-12-20T04:25:48;7.00;99.90
19437;DHT22;9854;50.968;4.168;2023-12-20T04:28:14;7.00;99.90
19437;DHT22;9854;50.968;4.168;2023-12-20T04:30:40;6.90;99.90
19437;DHT22;9854;50.968;4.168;2023-12-20T04:33:08;7.00;99.90
19437;DHT22;9854;50.968;4.168;2023-12-20T04:35:35;6.90;99.90
19437;DHT22;9854;50.968;4.168;2023-12-20T04:38:01;7.10;99.90
19437;DHT22;9854;50.968;4.168;2023-12-20T04:40:29;7.10;99.90
19437;DHT22;9854;50.968;4.168;2023-12-20T04:42:55;7.30;99.90
19437;DHT22;9854;50.968;4.168;2023-12-20T04:45:20;7.20;99.90
19437;DHT22;9854;50.968;4.168;2023-12-20T04:47:46;7.20;99.90
19437;DHT22;9854;50.968;4.168;2023-12-20T04:50:12;7.20;99.90
19437;DHT22;9854;50.968;4.168;2023-12-20T04:52:38;7.10;99.90
19437;DHT22;9854;50.968;4.168;2023-12-20T04:55:04;7.00;99.90
19437;DHT22;9854;50.968;4.168;2023-12-20T04:57:30;7.20;99.90
19437;DHT22;9854;50.968;4.168;2023-12-20T04:59:58;7.10;99.90
19437;DHT22;9854;50.968;4.168;2023-12-20T05:02:26;7.00;99.90
19437;DHT22;9854;50.968;4.168;2023-12-20T05:04:51;7.10;99.90
19437;DHT22;9854;50.968;4.168;2023-12-20T05:07:19;7.00;99.90
19437;DHT22;9854;50.968;4.168;2023-12-20T05:09:45;7.00;99.90
19437;DHT22;9854;50.968;4.168;2023-12-20T05:12:10;6.90;99.90
19437;DHT22;9854;50.968;4.168;2023-12-20T05:14:38;6.90;99.90
19437;DHT22;9854;50.968;4.168;2023-12-20T05:17:04;7.00;99.90
19437;DHT22;9854;50.968;4.168;2023-12-20T05:19:29;6.90;99.90
19437;DHT22;9854;50.968;4.168;2023-12-20T05:21:55;6.90;99.90
19437;DHT22;9854;50.968;4.168;2023-12-20T05:24:20;6.90;99.90
19437;DHT22;9854;50.968;4.168;2023-12-20T05:26:46;6.80;99.90
19437;DHT22;9854;50.968;4.168;2023-12-20T05:29:12;6.70;99.90
19437;DHT22;9854;50.968;4.168;2023-12-20T05:31:40;6.60;99.90
19437;DHT22;9854;50.968;4.168;2023-12-20T05:34:08;6.80;99.90
19437;DHT22;9854;50.968;4.168;2023-12-20T05:36:34;6.80;99.90
19437;DHT22;9854;50.968;4.168;2023-12-20T05:39:00;6.80;99.90
19437;DHT22;9854;50.968;4.168;2023-12-20T05:41:28;6.80;99.90
19437;DHT22;9854;50.968;4.168;2023-12-20T05:43:56;6.80;99.90
19437;DHT22;9854;50.968;4.168;2023-12-20T05:46:24;6.70;99.90
19437;DHT22;9854;50.968;4.168;2023-12-20T05:48:50;6.80;99.90
19437;DHT22;9854;50.968;4.168;2023-12-20T05:51:17;6.80;99.90
19437;DHT22;9854;50.968;4.168;2023-12-20T05:53:48;6.70;99.90
19437;DHT22;9854;50.968;4.168;2023-12-20T05:56:15;6.70;99.90
19437;DHT22;9854;50.968;4.168;2023-12-20T05:58:43;6.70;99.90
19437;DHT22;9854;50.968;4.168;2023-12-20T06:01:09;6.60;99.90
19437;DHT22;9854;50.968;4.168;2023-12-20T06:03:35;6.60;99.90
19437;DHT22;9854;50.968;4.168;2023-12-20T06:06:08;6.80;99.90
19437;DHT22;9854;50.968;4.168;2023-12-20T06:08:33;6.90;99.90
19437;DHT22;9854;50.968;4.168;2023-12-20T06:10:59;6.90;99.90
19437;DHT22;9854;50.968;4.168;2023-12-20T06:13:25;6.80;99.90
19437;DHT22;9854;50.968;4.168;2023-12-20T06:15:56;6.70;99.90
19437;DHT22;9854;50.968;4.168;2023-12-20T06:18:22;6.90;99.90
19437;DHT22;9854;50.968;4.168;2023-12-20T06:20:48;6.90;99.90
19437;DHT22;9854;50.968;4.168;2023-12-20T06:23:16;6.90;99.90
19437;DHT22;9854;50.968;4.168;2023-12-20T06:25:44;7.00;99.90
19437;DHT22;9854;50.968;4.168;2023-12-20T06:28:09;7.00;99.90
19437;DHT22;9854;50.968;4.168;2023-12-20T06:30:38;7.00;99.90
19437;DHT22;9854;50.968;4.168;2023-12-20T06:33:04;7.10;99.90
19437;DHT22;9854;50.968;4.168;2023-12-20T06:35:29;7.00;99.90
19437;DHT22;9854;50.968;4.168;2023-12-20T06:37:58;7.10;99.90
19437;DHT22;9854;50.968;4.168;2023-12-20T06:40:23;7.20;99.90
19437;DHT22;9854;50.968;4.168;2023-12-20T06:42:49;7.10;99.90
19437;DHT22;9854;50.968;4.168;2023-12-20T06:45:17;7.00;99.90
19437;DHT22;9854;50.968;4.168;2023-12-20T06:47:45;6.80;99.90
19437;DHT22;9854;50.968;4.168;2023-12-20T06:50:11;6.60;99.90
19437;DHT22;9854;50.968;4.168;2023-12-20T06:52:39;6.60;99.90
19437;DHT22;9854;50.968;4.168;2023-12-20T06:55:05;6.70;99.90
19437;DHT22;9854;50.968;4.168;2023-12-20T06:57:30;6.80;99.90
19437;DHT22;9854;50.968;4.168;2023-12-20T06:59:56;6.90;99.90
19437;DHT22;9854;50.968;4.168;2023-12-20T07:02:24;6.90;99.90
19437;DHT22;9854;50.968;4.168;2023-12-20T07:04:49;6.90;99.90
19437;DHT22;9854;50.968;4.168;2023-12-20T07:07:15;6.80;99.90
19437;DHT22;9854;50.968;4.168;2023-12-20T07:09:41;6.70;99.90
19437;DHT22;9854;50.968;4.168;2023-12-20T07:12:08;6.70;99.90
19437;DHT22;9854;50.968;4.168;2023-12-20T07:14:34;6.80;99.90
19437;DHT22;9854;50.968;4.168;2023-12-20T07:17:00;6.80;99.90
19437;DHT22;9854;50.968;4.168;2023-12-20T07:19:28;6.80;99.90
19437;DHT22;9854;50.968;4.168;2023-12-20T07:21:54;6.80;99.90
19437;DHT22;9854;50.968;4.168;2023-12-20T07:24:20;6.70;99.90
19437;DHT22;9854;50.968;4.168;2023-12-20T07:26:48;6.60;99.90
19437;DHT22;9854;50.968;4.168;2023-12-20T07:29:16;6.60;99.90
19437;DHT22;9854;50.968;4.168;2023-12-20T07:31:44;6.50;99.90
19437;DHT22;9854;50.968;4.168;2023-12-20T07:34:10;6.50;99.90
19437;DHT22;9854;50.968;4.168;2023-12-20T07:36:36;6.50;99.90
19437;DHT22;9854;50.968;4.168;2023-12-20T07:39:04;6.50;99.90
19437;DHT22;9854;50.968;4.168;2023-12-20T07:41:32;6.50;99.90
19437;DHT22;9854;50.968;4.168;2023-12-20T07:44:00;6.60;99.90
19437;DHT22;9854;50.968;4.168;2023-12-20T07:46:28;6.60;99.90
19437;DHT22;9854;50.968;4.168;2023-12-20T07:48:53;6.60;99.90
19437;DHT22;9854;50.968;4.168;2023-12-20T07:51:21;6.60;99.90
19437;DHT22;9854;50.968;4.168;2023-12-20T07:53:52;6.60;99.90
19437;DHT22;9854;50.968;4.168;2023-12-20T07:56:18;6.60;99.90
19437;DHT22;9854;50.968;4.168;2023-12-20T07:58:45;6.60;99.90
19437;DHT22;9854;50.968;4.168;2023-12-20T08:01:11;6.60;99.90
19437;DHT22;9854;50.968;4.168;2023-12-20T08:03:38;6.70;99.90
19437;DHT22;9854;50.968;4.168;2023-12-20T08:06:04;6.70;99.90
19437;DHT22;9854;50.968;4.168;2023-12-20T08:08:30;6.70;99.90
19437;DHT22;9854;50.968;4.168;2023-12-20T08:10:56;6.70;99.90
19437;DHT22;9854;50.968;4.168;2023-12-20T08:13:24;6.70;99.90
19437;DHT22;9854;50.968;4.168;2023-12-20T08:15:52;6.90;99.90
19437;DHT22;9854;50.968;4.168;2023-12-20T08:18:20;6.90;99.90
19437;DHT22;9854;50.968;4.168;2023-12-20T08:20:45;6.90;99.90
19437;DHT22;9854;50.968;4.168;2023-12-20T08:23:15;6.80;99.90
19437;DHT22;9854;50.968;4.168;2023-12-20T08:25:40;6.80;99.90
19437;DHT22;9854;50.968;4.168;2023-12-20T08:28:06;6.80;99.90
19437;DHT22;9854;50.968;4.168;2023-12-20T08:30:32;6.70;99.90
19437;DHT22;9854;50.968;4.168;2023-12-20T08:33:01;6.80;99.90
19437;DHT22;9854;50.968;4.168;2023-12-20T08:35:27;6.70;99.90
19437;DHT22;9854;50.968;4.168;2023-12-20T08:37:53;6.70;99.90
19437;DHT22;9854;50.968;4.168;2023-12-20T08:40:21;6.80;99.90
19437;DHT22;9854;50.968;4.168;2023-12-20T08:42:46;6.80;99.90
19437;DHT22;9854;50.968;4.168;2023-12-20T08:45:12;6.80;99.90
19437;DHT22;9854;50.968;4.168;2023-12-20T08:47:40;6.90;99.90
19437;DHT22;9854;50.968;4.168;2023-12-20T08:50:07;6.90;99.90
19437;DHT22;9854;50.968;4.168;2023-12-20T08:52:32;6.90;99.90
19437;DHT22;9854;50.968;4.168;2023-12-20T08:54:58;6.80;99.90
19437;DHT22;9854;50.968;4.168;2023-12-20T08:57:24;6.90;99.90
19437;DHT22;9854;50.968;4.168;2023-12-20T08:59:52;6.90;99.90
19437;DHT22;9854;50.968;4.168;2023-12-20T09:02:17;7.00;99.90
19437;DHT22;9854;50.968;4.168;2023-12-20T09:04:43;7.00;99.90
19437;DHT22;9854;50.968;4.168;2023-12-20T09:07:22;6.90;99.90
19437;DHT22;9854;50.968;4.168;2023-12-20T09:09:48;7.00;99.90
19437;DHT22;9854;50.968;4.168;2023-12-20T09:12:13;7.00;99.90
19437;DHT22;9854;50.968;4.168;2023-12-20T09:14:39;7.00;99.90
19437;DHT22;9854;50.968;4.168;2023-12-20T09:17:05;7.10;99.90
19437;DHT22;9854;50.968;4.168;2023-12-20T09:19:31;7.20;99.90
19437;DHT22;9854;50.968;4.168;2023-12-20T09:21:57;7.20;99.90
19437;DHT22;9854;50.968;4.168;2023-12-20T09:24:23;7.30;99.90
19437;DHT22;9854;50.968;4.168;2023-12-20T09:26:48;7.40;99.90
19437;DHT22;9854;50.968;4.168;2023-12-20T09:29:14;7.40;99.90
19437;DHT22;9854;50.968;4.168;2023-12-20T09:31:41;7.50;99.90
19437;DHT22;9854;50.968;4.168;2023-12-20T09:34:11;7.50;99.90
19437;DHT22;9854;50.968;4.168;2023-12-20T09:36:39;7.50;99.90
19437;DHT22;9854;50.968;4.168;2023-12-20T09:39:12;7.50;99.90
19437;DHT22;9854;50.968;4.168;2023-12-20T09:41:43;7.60;99.90
19437;DHT22;9854;50.968;4.168;2023-12-20T09:44:13;7.70;99.90
19437;DHT22;9854;50.968;4.168;2023-12-20T09:46:44;7.60;99.90
19437;DHT22;9854;50.968;4.168;2023-12-20T09:49:12;7.60;99.90
19437;DHT22;9854;50.968;4.168;2023-12-20T09:51:41;7.60;99.90
19437;DHT22;9854;50.968;4.168;2023-12-20T09:54:07;7.70;99.90
19437;DHT22;9854;50.968;4.168;2023-12-20T09:56:33;7.60;99.90
19437;DHT22;9854;50.968;4.168;2023-12-20T09:58:59;7.50;99.90
19437;DHT22;9854;50.968;4.168;2023-12-20T10:01:25;7.60;99.90
19437;DHT22;9854;50.968;4.168;2023-12-20T10:03:54;7.80;99.90
19437;DHT22;9854;50.968;4.168;2023-12-20T10:06:23;7.80;99.90
19437;DHT22;9854;50.968;4.168;2023-12-20T10:08:51;7.90;99.90
19437;DHT22;9854;50.968;4.168;2023-12-20T10:11:17;7.90;99.90
19437;DHT22;9854;50.968;4.168;2023-12-20T10:13:43;7.90;99.90
19437;DHT22;9854;50.968;4.168;2023-12-20T10:16:09;7.90;99.90
19437;DHT22;9854;50.968;4.168;2023-12-20T10:18:35;7.80;99.90
19437;DHT22;9854;50.968;4.168;2023-12-20T10:21:01;8.10;99.90
19437;DHT22;9854;50.968;4.168;2023-12-20T10:23:30;8.00;99.90
19437;DHT22;9854;50.968;4.168;2023-12-20T10:26:00;8.10;99.90
19437;DHT22;9854;50.968;4.168;2023-12-20T10:28:26;8.10;99.90
19437;DHT22;9854;50.968;4.168;2023-12-20T10:30:54;8.10;99.90
19437;DHT22;9854;50.968;4.168;2023-12-20T10:33:26;8.10;99.90
19437;DHT22;9854;50.968;4.168;2023-12-20T10:35:57;8.10;99.90
19437;DHT22;9854;50.968;4.168;2023-12-20T10:38:25;8.20;99.90
19437;DHT22;9854;50.968;4.168;2023-12-20T10:40:57;8.30;99.90
19437;DHT22;9854;50.968;4.168;2023-12-20T10:43:28;8.20;99.90
19437;DHT22;9854;50.968;4.168;2023-12-20T10:45:55;8.20;99.90
19437;DHT22;9854;50.968;4.168;2023-12-20T10:48:21;8.20;99.90
19437;DHT22;9854;50.968;4.168;2023-12-20T10:50:52;8.40;99.90
19437;DHT22;9854;50.968;4.168;2023-12-20T10:53:25;8.30;99.90
19437;DHT22;9854;50.968;4.168;2023-12-20T10:55:52;8.30;99.90
19437;DHT22;9854;50.968;4.168;2023-12-20T10:58:21;8.30;99.90
19437;DHT22;9854;50.968;4.168;2023-12-20T11:00:59;8.40;99.90
19437;DHT22;9854;50.968;4.168;2023-12-20T11:03:28;8.40;99.90
19437;DHT22;9854;50.968;4.168;2023-12-20T11:06:04;8.40;99.90
19437;DHT22;9854;50.968;4.168;2023-12-20T11:11:14;8.40;99.90
19437;DHT22;9854;50.968;4.168;2023-12-20T11:14:08;8.50;99.90
19437;DHT22;9854;50.968;4.168;2023-12-20T11:16:38;8.40;99.90
19437;DHT22;9854;50.968;4.168;2023-12-20T11:19:11;8.50;99.90
19437;DHT22;9854;50.968;4.168;2023-12-20T11:21:39;8.60;99.90
19437;DHT22;9854;50.968;4.168;2023-12-20T11:24:06;8.60;99.90
19437;DHT22;9854;50.968;4.168;2023-12-20T11:26:33;8.60;99.90
19437;DHT22;9854;50.968;4.168;2023-12-20T11:29:29;8.60;99.90
19437;DHT22;9854;50.968;4.168;2023-12-20T11:32:00;8.50;99.90
19437;DHT22;9854;50.968;4.168;2023-12-20T11:34:31;8.50;99.90
19437;DHT22;9854;50.968;4.168;2023-12-20T11:37:01;8.60;99.90
19437;DHT22;9854;50.968;4.168;2023-12-20T11:39:28;8.70;99.90
19437;DHT22;9854;50.968;4.168;2023-12-20T11:41:59;8.70;99.90
19437;DHT22;9854;50.968;4.168;2023-12-20T11:44:32;8.70;99.90
19437;DHT22;9854;50.968;4.168;2023-12-20T11:46:58;8.70;99.90
19437;DHT22;9854;50.968;4.168;2023-12-20T11:49:24;8.70;99.90
19437;DHT22;9854;50.968;4.168;2023-12-20T11:51:50;8.80;99.90
19437;DHT22;9854;50.968;4.168;2023-12-20T11:54:16;8.90;99.90
19437;DHT22;9854;50.968;4.168;2023-12-20T11:56:44;8.80;99.90
19437;DHT22;9854;50.968;4.168;2023-12-20T11:59:10;8.90;99.90
19437;DHT22;9854;50.968;4.168;2023-12-20T12:01:39;9.00;99.90
19437;DHT22;9854;50.968;4.168;2023-12-20T12:04:07;9.00;99.90
19437;DHT22;9854;50.968;4.168;2023-12-20T12:06:33;9.10;99.90
19437;DHT22;9854;50.968;4.168;2023-12-20T12:09:01;9.10;99.90
19437;DHT22;9854;50.968;4.168;2023-12-20T12:11:31;9.20;99.90
19437;DHT22;9854;50.968;4.168;2023-12-20T12:13:59;9.30;99.90
19437;DHT22;9854;50.968;4.168;2023-12-20T12:16:28;9.20;99.90
19437;DHT22;9854;50.968;4.168;2023-12-20T12:18:58;9.20;99.90
19437;DHT22;9854;50.968;4.168;2023-12-20T12:21:24;9.30;99.90
19437;DHT22;9854;50.968;4.168;2023-12-20T12:23:50;9.50;99.90
19437;DHT22;9854;50.968;4.168;2023-12-20T12:26:15;9.40;99.90
19437;DHT22;9854;50.968;4.168;2023-12-20T12:28:44;9.30;99.90
19437;DHT22;9854;50.968;4.168;2023-12-20T12:31:14;9.30;99.90
19437;DHT22;9854;50.968;4.168;2023-12-20T12:33:42;9.20;99.90
19437;DHT22;9854;50.968;4.168;2023-12-20T12:36:10;9.10;99.90
19437;DHT22;9854;50.968;4.168;2023-12-20T12:38:38;9.20;99.90
19437;DHT22;9854;50.968;4.168;2023-12-20T12:41:04;9.20;99.90
19437;DHT22;9854;50.968;4.168;2023-12-20T12:43:33;9.20;99.90
19437;DHT22;9854;50.968;4.168;2023-12-20T12:45:59;9.20;99.90
19437;DHT22;9854;50.968;4.168;2023-12-20T12:48:27;9.10;99.90
19437;DHT22;9854;50.968;4.168;2023-12-20T12:50:54;9.00;99.90
19437;DHT22;9854;50.968;4.168;2023-12-20T12:53:20;8.90;99.90
19437;DHT22;9854;50.968;4.168;2023-12-20T12:55:45;8.90;99.90
19437;DHT22;9854;50.968;4.168;2023-12-20T12:58:11;8.90;99.90
19437;DHT22;9854;50.968;4.168;2023-12-20T13:00:37;9.00;99.90
19437;DHT22;9854;50.968;4.168;2023-12-20T13:03:05;9.10;99.90
19437;DHT22;9854;50.968;4.168;2023-12-20T13:05:31;9.20;99.90
19437;DHT22;9854;50.968;4.168;2023-12-20T13:07:57;9.20;99.90
19437;DHT22;9854;50.968;4.168;2023-12-20T13:10:24;9.30;99.90
19437;DHT22;9854;50.968;4.168;2023-12-20T13:12:49;9.40;99.90
19437;DHT22;9854;50.968;4.168;2023-12-20T13:15:15;9.40;99.90
19437;DHT22;9854;50.968;4.168;2023-12-20T13:17:41;9.40;99.90
19437;DHT22;9854;50.968;4.168;2023-12-20T13:20:09;9.50;99.90
19437;DHT22;9854;50.968;4.168;2023-12-20T13:22:35;9.40;99.90
19437;DHT22;9854;50.968;4.168;2023-12-20T13:25:01;9.50;99.90
19437;DHT22;9854;50.968;4.168;2023-12-20T13:27:28;9.60;99.90
19437;DHT22;9854;50.968;4.168;2023-12-20T13:29:54;9.60;99.90
19437;DHT22;9854;50.968;4.168;2023-12-20T13:32:19;9.60;99.90
19437;DHT22;9854;50.968;4.168;2023-12-20T13:34:50;9.60;99.90
19437;DHT22;9854;50.968;4.168;2023-12-20T13:37:18;9.70;99.90
19437;DHT22;9854;50.968;4.168;2023-12-20T13:39:44;9.70;99.90
19437;DHT22;9854;50.968;4.168;2023-12-20T13:42:14;9.80;99.90
19437;DHT22;9854;50.968;4.168;2023-12-20T13:44:40;9.90;99.90
19437;DHT22;9854;50.968;4.168;2023-12-20T13:47:05;9.70;99.90
19437;DHT22;9854;50.968;4.168;2023-12-20T13:49:31;9.80;99.90
19437;DHT22;9854;50.968;4.168;2023-12-20T13:51:57;9.80;99.90
19437;DHT22;9854;50.968;4.168;2023-12-20T13:54:24;9.80;99.90
19437;DHT22;9854;50.968;4.168;2023-12-20T13:56:50;9.80;99.90
19437;DHT22;9854;50.968;4.168;2023-12-20T13:59:15;9.90;99.90
19437;DHT22;9854;50.968;4.168;2023-12-20T14:01:41;9.90;99.90
19437;DHT22;9854;50.968;4.168;2023-12-20T14:04:07;9.80;99.90
19437;DHT22;9854;50.968;4.168;2023-12-20T14:06:33;9.90;99.90
19437;DHT22;9854;50.968;4.168;2023-12-20T14:08:59;9.80;99.90
19437;DHT22;9854;50.968;4.168;2023-12-20T14:11:28;9.90;99.90
19437;DHT22;9854;50.968;4.168;2023-12-20T14:13:56;9.90;99.90
19437;DHT22;9854;50.968;4.168;2023-12-20T14:16:24;9.90;99.90
19437;DHT22;9854;50.968;4.168;2023-12-20T14:18:50;9.80;99.90
19437;DHT22;9854;50.968;4.168;2023-12-20T14:21:22;9.70;99.90
19437;DHT22;9854;50.968;4.168;2023-12-20T14:23:49;9.80;99.90
19437;DHT22;9854;50.968;4.168;2023-12-20T14:26:15;9.90;99.90
19437;DHT22;9854;50.968;4.168;2023-12-20T14:28:44;9.80;99.90
19437;DHT22;9854;50.968;4.168;2023-12-20T14:31:09;9.80;99.90
19437;DHT22;9854;50.968;4.168;2023-12-20T14:33:39;9.90;99.90
19437;DHT22;9854;50.968;4.168;2023-12-20T14:36:05;10.00;99.90
19437;DHT22;9854;50.968;4.168;2023-12-20T14:38:34;9.90;99.90
19437;DHT22;9854;50.968;4.168;2023-12-20T14:41:00;9.80;99.90
19437;DHT22;9854;50.968;4.168;2023-12-20T14:43:31;9.70;99.90
19437;DHT22;9854;50.968;4.168;2023-12-20T14:45:59;9.80;99.90
19437;DHT22;9854;50.968;4.168;2023-12-20T14:48:24;9.70;99.90
19437;DHT22;9854;50.968;4.168;2023-12-20T14:50:53;9.90;99.90
19437;DHT22;9854;50.968;4.168;2023-12-20T14:53:21;9.90;99.90
19437;DHT22;9854;50.968;4.168;2023-12-20T14:55:50;9.90;99.90
19437;DHT22;9854;50.968;4.168;2023-12-20T14:58:16;9.90;99.90
19437;DHT22;9854;50.968;4.168;2023-12-20T15:00:42;10.00;99.90
19437;DHT22;9854;50.968;4.168;2023-12-20T15:03:09;10.00;99.90
19437;DHT22;9854;50.968;4.168;2023-12-20T15:05:35;10.00;99.90
19437;DHT22;9854;50.968;4.168;2023-12-20T15:08:03;10.00;99.90
19437;DHT22;9854;50.968;4.168;2023-12-20T15:10:32;9.90;99.90
19437;DHT22;9854;50.968;4.168;2023-12-20T15:12:57;9.90;99.90
19437;DHT22;9854;50.968;4.168;2023-12-20T15:15:23;9.80;99.90
19437;DHT22;9854;50.968;4.168;2023-12-20T15:17:49;9.90;99.90
19437;DHT22;9854;50.968;4.168;2023-12-20T15:20:19;10.00;99.90
19437;DHT22;9854;50.968;4.168;2023-12-20T15:22:45;10.00;99.90
19437;DHT22;9854;50.968;4.168;2023-12-20T15:25:15;10.00;99.90
19437;DHT22;9854;50.968;4.168;2023-12-20T15:27:49;10.00;99.90
19437;DHT22;9854;50.968;4.168;2023-12-20T15:30:21;10.00;99.90
19437;DHT22;9854;50.968;4.168;2023-12-20T15:32:49;10.00;99.90
19437;DHT22;9854;50.968;4.168;2023-12-20T15:35:15;10.00;99.90
19437;DHT22;9854;50.968;4.168;2023-12-20T15:37:41;10.10;99.90
19437;DHT22;9854;50.968;4.168;2023-12-20T15:40:10;10.00;99.90
19437;DHT22;9854;50.968;4.168;2023-12-20T15:42:39;10.10;99.90
19437;DHT22;9854;50.968;4.168;2023-12-20T15:45:06;10.30;99.90
19437;DHT22;9854;50.968;4.168;2023-12-20T15:47:36;10.30;99.90
19437;DHT22;9854;50.968;4.168;2023-12-20T15:50:02;10.10;99.90
19437;DHT22;9854;50.968;4.168;2023-12-20T15:52:29;10.00;99.90
19437;DHT22;9854;50.968;4.168;2023-12-20T15:54:57;9.90;99.90
19437;DHT22;9854;50.968;4.168;2023-12-20T15:57:25;10.00;99.90
19437;DHT22;9854;50.968;4.168;2023-12-20T15:59:53;10.10;99.90
19437;DHT22;9854;50.968;4.168;2023-12-20T16:02:19;10.10;99.90